Time;durP1;ratioP1;P1;durP2;ratioP2;P2;SDS_P1;SDS_P2;PMS_P1;PMS_P2;Temp;Humidity;BMP_temperature;BMP_pressure;BME280_temperature;BME280_humidity;BME280_pressure;Samples;Min_cycle;Max_cycle;Signal;HPM_P1;HPM_P2
2022/04/21 00:00:45;;;;;;;7.83;6.93;;;5.80;93.20;;;5.55;63.23;94969.91;5060607;28;20474;-54
2022/04/21 00:03:14;;;;;;;10.13;6.97;;;5.80;93.20;;;5.52;63.49;94966.69;5056618;28;20502;-55
2022/04/21 00:05:41;;;;;;;9.23;7.40;;;5.70;93.40;;;5.50;63.35;94963.31;5056927;28;20522;-55
2022/04/21 00:08:09;;;;;;;11.00;7.47;;;5.70;93.50;;;5.49;63.47;94972.09;5057636;28;20827;-56
2022/04/21 00:10:37;;;;;;;7.70;6.70;;;5.70;93.60;;;5.47;63.65;94966.16;5051472;28;20553;-55
2022/04/21 00:13:05;;;;;;;7.93;6.70;;;5.70;93.70;;;5.44;63.38;94954.16;5048581;28;20948;-56
2022/04/21 00:15:33;;;;;;;9.77;7.23;;;5.60;93.70;;;5.41;63.66;94954.38;5051162;28;20475;-55
2022/04/21 00:18:01;;;;;;;8.23;7.43;;;5.60;93.60;;;5.38;63.63;94963.25;5050959;28;20902;-57
2022/04/21 00:20:29;;;;;;;9.13;7.73;;;5.60;93.70;;;5.35;63.82;94965.25;5054910;28;20474;-55
2022/04/21 00:25:41;;;;;;;7.10;6.43;;;5.50;93.80;;;5.32;63.57;94971.50;5055343;28;20550;-55
2022/04/21 00:28:08;;;;;;;7.00;6.37;;;5.50;93.80;;;5.31;63.79;94967.19;5056200;28;20455;-56
2022/04/21 00:30:36;;;;;;;8.90;7.93;;;5.50;93.90;;;5.32;64.03;94971.50;5053547;28;21514;-54
2022/04/21 00:33:04;;;;;;;9.43;6.40;;;5.50;93.90;;;5.32;63.95;94966.28;5057119;28;20473;-56
2022/04/21 00:35:32;;;;;;;7.70;6.40;;;5.50;93.90;;;5.31;63.82;94971.59;5059066;28;20487;-56
2022/04/21 00:38:00;;;;;;;7.57;6.50;;;5.50;93.90;;;5.30;63.82;94970.78;5056975;28;20494;-56
2022/04/21 00:40:29;;;;;;;6.60;6.00;;;5.50;93.90;;;5.30;63.78;94968.16;5055111;28;20476;-55
2022/04/21 00:42:56;;;;;;;7.03;5.53;;;5.50;93.90;;;5.29;63.92;94981.31;5055745;28;20456;-57
2022/04/21 00:45:24;;;;;;;8.13;6.23;;;5.50;94.00;;;5.27;64.09;94970.97;5052644;28;20525;-55
2022/04/21 00:47:52;;;;;;;6.80;6.20;;;5.50;94.00;;;5.27;64.07;94965.75;5053122;28;20467;-55
2022/04/21 00:50:22;;;;;;;6.30;5.80;;;5.50;94.00;;;5.27;64.03;94968.38;5049413;28;20533;-56
2022/04/21 00:52:51;;;;;;;6.57;5.90;;;5.50;94.00;;;5.26;63.93;94966.69;5060735;28;20444;-57
2022/04/21 00:55:18;;;;;;;6.30;5.70;;;5.40;94.00;;;5.22;63.84;94962.66;5049851;28;21068;-56
2022/04/21 00:57:46;;;;;;;9.70;5.87;;;5.40;94.30;;;5.20;64.12;94957.53;5049553;28;20471;-55
2022/04/21 01:00:15;;;;;;;6.93;5.80;;;5.40;94.00;;;5.18;64.25;94955.97;5050903;28;20487;-56
2022/04/21 01:02:47;;;;;;;8.63;6.00;;;5.40;94.00;;;5.15;64.58;94951.78;5054307;28;20467;-55
2022/04/21 01:05:15;;;;;;;8.53;6.87;;;5.40;94.00;;;5.15;64.00;94961.38;5052103;28;20482;-55
2022/04/21 01:07:42;;;;;;;10.13;6.67;;;5.30;94.00;;;5.13;63.95;94956.28;5055464;28;20896;-55
2022/04/21 01:10:12;;;;;;;8.87;6.90;;;5.30;94.10;;;5.13;64.30;94945.84;5056381;28;20510;-55
2022/04/21 01:12:39;;;;;;;9.23;6.27;;;5.30;94.10;;;5.08;64.27;94953.16;5055241;28;20459;-54
2022/04/21 01:15:08;;;;;;;8.57;6.47;;;5.30;94.10;;;5.10;64.31;94950.44;5056298;28;20505;-56
2022/04/21 01:17:36;;;;;;;7.07;6.20;;;5.30;94.10;;;5.07;64.36;94950.66;5058750;28;20466;-55
2022/04/21 01:20:04;;;;;;;8.53;6.30;;;5.30;94.20;;;5.05;64.51;94931.66;5055283;28;20490;-55
2022/04/21 01:22:33;;;;;;;16.67;7.00;;;5.30;94.20;;;5.05;64.24;94931.66;5056788;28;20462;-55
2022/04/21 01:25:00;;;;;;;6.77;6.07;;;5.20;94.20;;;5.02;64.33;94928.34;5054366;28;20475;-56
2022/04/21 01:27:33;;;;;;;11.77;6.80;;;5.30;94.20;;;5.00;64.57;94925.00;5053801;28;20454;-56
2022/04/21 01:30:02;;;;;;;11.10;6.43;;;5.20;94.20;;;4.99;64.44;94919.91;5057930;28;20479;-56
2022/04/21 01:32:29;;;;;;;9.63;7.13;;;5.20;94.30;;;4.99;64.51;94914.69;5051189;28;21022;-55
2022/04/21 01:34:56;;;;;;;7.73;6.63;;;5.20;94.30;;;4.98;64.51;94913.84;5048852;28;20526;-57
2022/04/21 01:42:56;;;;;;;8.97;7.87;;;5.10;94.50;;;4.81;64.61;94908.94;5054234;28;20431;-56
2022/04/21 01:45:23;;;;;;;15.70;8.13;;;5.00;94.40;;;4.74;64.84;94915.50;5053630;28;20475;-57
2022/04/21 01:47:50;;;;;;;9.93;7.63;;;5.00;94.50;;;4.64;64.88;94903.09;5054804;28;20470;-57
2022/04/21 01:50:18;;;;;;;18.33;7.57;;;4.90;94.60;;;4.59;65.02;94910.38;5056730;28;20479;-56
2022/04/21 01:52:46;;;;;;;9.53;7.20;;;4.80;94.70;;;4.54;65.04;94920.28;5060436;28;20928;-55
2022/04/21 01:55:14;;;;;;;9.07;7.00;;;4.70;94.80;;;4.45;65.29;94920.88;5051809;28;20518;-54
2022/04/21 01:57:41;;;;;;;9.70;8.10;;;4.70;94.80;;;4.35;65.27;94912.84;5052753;28;20960;-56
2022/04/21 02:00:10;;;;;;;14.53;7.87;;;4.60;95.00;;;4.31;65.66;94912.22;5053980;28;20495;-55
2022/04/21 02:02:38;;;;;;;8.80;7.13;;;4.50;95.20;;;4.29;65.99;94908.88;5059061;28;20463;-57
2022/04/21 02:05:06;;;;;;;8.27;7.47;;;4.50;95.20;;;4.30;65.96;94910.53;5061035;28;20928;-54
2022/04/21 02:07:33;;;;;;;11.60;7.67;;;4.50;95.40;;;4.30;65.95;94910.53;5059112;28;20481;-56
2022/04/21 02:10:00;;;;;;;12.97;8.30;;;4.50;95.30;;;4.28;66.15;94902.00;5061407;28;20798;-55
2022/04/21 02:12:29;;;;;;;8.83;7.50;;;4.50;95.30;;;4.28;66.06;94902.00;5052573;28;20451;-56
2022/04/21 02:14:57;;;;;;;12.60;8.43;;;4.50;95.60;;;4.29;66.38;94898.47;5056261;28;20500;-55
2022/04/21 02:17:26;;;;;;;11.03;7.53;;;4.50;95.60;;;4.30;66.11;94899.28;5060947;28;20460;-57
2022/04/21 02:19:53;;;;;;;18.70;7.80;;;4.50;95.60;;;4.30;66.08;94905.31;5059166;28;20679;-55
2022/04/21 02:22:20;;;;;;;28.47;15.97;;;4.50;95.60;;;4.29;65.64;94901.06;5057207;28;20518;-56
2022/04/21 02:24:48;;;;;;;17.10;10.70;;;4.50;95.70;;;4.28;65.94;94898.56;5059990;28;20475;-55
2022/04/21 02:27:15;;;;;;;13.87;8.47;;;4.50;95.60;;;4.28;66.06;94901.16;5050228;28;20448;-56
2022/04/21 02:29:43;;;;;;;11.37;7.97;;;4.50;95.80;;;4.28;65.90;94902.00;5054105;28;20510;-57
2022/04/21 02:32:11;;;;;;;17.67;10.20;;;4.50;95.60;;;4.27;66.17;94896.88;5055703;28;20463;-55
2022/04/21 02:34:38;;;;;;;12.30;8.30;;;4.50;95.60;;;4.27;66.63;94905.53;5061572;28;20458;-58
2022/04/21 02:37:05;;;;;;;15.07;9.20;;;4.50;95.80;;;4.25;66.01;94901.38;5056458;28;20460;-55
2022/04/21 02:39:32;;;;;;;17.97;8.60;;;4.50;95.70;;;4.25;66.55;94911.78;5058517;28;20491;-57
2022/04/21 02:42:01;;;;;;;12.03;9.23;;;4.50;95.80;;;4.22;66.27;94910.22;5051146;28;20459;-55
2022/04/21 02:44:28;;;;;;;14.10;9.77;;;4.50;95.80;;;4.22;66.12;94912.00;5051018;28;20842;-56
2022/04/21 02:46:57;;;;;;;13.50;9.07;;;4.50;95.80;;;4.20;66.75;94919.03;5055801;28;20475;-55
2022/04/21 02:49:25;;;;;;;10.30;8.43;;;4.40;95.80;;;4.19;66.77;94923.41;5056108;28;20447;-55
2022/04/21 02:51:52;;;;;;;16.67;9.53;;;4.40;95.80;;;4.17;66.32;94927.03;5059126;28;20467;-57
2022/04/21 02:57:22;;;;;;;103.67;36.70;;;4.40;95.50;;;4.09;66.62;94919.75;5059737;28;20510;-55
2022/04/21 02:59:51;;;;;;;54.43;21.10;;;4.30;95.80;;;4.09;65.96;94911.94;5051815;28;20522;-55
2022/04/21 03:02:20;;;;;;;57.90;23.80;;;4.30;95.70;;;4.10;66.20;94908.41;5059365;28;20463;-55
2022/04/21 03:04:47;;;;;;;46.53;20.87;;;4.30;95.80;;;4.12;66.71;94911.72;5058363;28;20483;-55
2022/04/21 03:07:14;;;;;;;30.67;14.33;;;4.30;96.00;;;4.14;66.27;94920.28;5060091;28;20463;-58
2022/04/21 03:09:42;;;;;;;24.07;13.70;;;4.30;96.00;;;4.13;66.75;94922.03;5056581;28;20456;-55
2022/04/21 03:12:10;;;;;;;15.70;10.33;;;4.40;96.00;;;4.13;66.91;94918.63;5057472;28;20545;-57
2022/04/21 03:14:38;;;;;;;10.60;9.17;;;4.40;96.20;;;4.13;66.72;94918.63;5058526;28;20462;-56
2022/04/21 03:17:05;;;;;;;14.00;9.67;;;4.40;96.10;;;4.15;66.61;94915.91;5055834;28;20528;-56
2022/04/21 03:19:34;;;;;;;14.20;9.53;;;4.40;96.00;;;4.15;66.68;94916.75;5056917;28;20494;-55
2022/04/21 03:24:46;;;;;;;15.20;10.50;;;4.40;95.90;;;4.15;66.42;94905.50;5060064;28;20477;-55
2022/04/21 03:27:14;;;;;;;14.70;9.60;;;4.40;95.80;;;4.11;66.21;94892.69;5053009;28;20460;-56
2022/04/21 03:29:41;;;;;;;14.07;10.63;;;4.40;95.70;;;4.11;66.63;94910.91;5050399;28;20456;-56
2022/04/21 03:32:10;;;;;;;12.80;10.70;;;4.30;95.80;;;4.11;66.28;94905.69;5055389;28;20549;-57
2022/04/21 03:34:41;;;;;;;21.10;10.47;;;4.30;96.00;;;4.09;66.79;94911.94;5055674;28;20518;-55
2022/04/21 03:37:08;;;;;;;13.00;10.80;;;4.30;95.90;;;4.04;66.18;94914.81;5057880;28;20512;-56
2022/04/21 03:39:36;;;;;;;12.87;10.17;;;4.30;95.70;;;4.02;66.41;94905.47;5062743;28;20625;-57
2022/04/21 03:42:04;;;;;;;22.97;11.90;;;4.30;95.70;;;4.00;66.64;94910.78;5054272;28;20550;-56
2022/04/21 03:44:31;;;;;;;19.27;11.50;;;4.20;95.80;;;4.01;66.50;94914.19;5058076;28;20458;-56
2022/04/21 03:47:00;;;;;;;13.53;11.07;;;4.30;95.80;;;4.00;66.87;94917.72;5064455;28;20447;-57
2022/04/21 03:49:27;;;;;;;28.27;12.77;;;4.20;95.90;;;4.01;66.86;94909.00;5058572;28;20972;-57
2022/04/21 03:51:56;;;;;;;21.30;13.37;;;4.20;96.00;;;4.04;66.54;94908.81;5054717;28;20452;-57
2022/04/21 03:54:24;;;;;;;24.20;12.70;;;4.30;96.00;;;4.07;66.66;94908.59;5059733;28;20841;-54
2022/04/21 03:56:51;;;;;;;19.00;12.67;;;4.30;96.10;;;4.07;66.28;94916.41;5056345;28;20997;-56
2022/04/21 03:59:18;;;;;;;20.73;12.10;;;4.30;95.90;;;4.09;66.34;94924.94;5048494;28;20492;-54
2022/04/21 04:01:45;;;;;;;19.13;12.80;;;4.30;96.00;;;4.10;66.59;94921.41;5054857;28;20483;-56
2022/04/21 04:04:13;;;;;;;22.33;13.40;;;4.30;95.90;;;4.13;66.50;94934.22;5058165;28;20459;-56
2022/04/21 04:12:12;;;;;;;24.83;12.70;;;4.40;95.90;;;4.24;66.36;94933.53;5053218;28;20446;-57
2022/04/21 04:14:40;;;;;;;23.47;12.87;;;4.50;95.80;;;4.27;66.50;94931.56;5051411;28;20483;-56
2022/04/21 04:17:08;;;;;;;24.30;12.53;;;4.50;95.70;;;4.30;66.35;94935.75;5052758;28;20943;-56
2022/04/21 04:19:35;;;;;;;22.57;11.77;;;4.50;95.60;;;4.33;66.07;94917.31;5049125;28;20842;-55
2022/04/21 04:22:03;;;;;;;21.40;12.23;;;4.60;95.60;;;4.37;65.80;94916.19;5055916;28;22603;-56
2022/04/21 04:24:31;;;;;;;20.80;13.93;;;4.60;95.60;;;4.41;65.68;94917.63;5059866;28;20883;-57
2022/04/21 04:26:59;;;;;;;18.63;12.83;;;4.60;95.40;;;4.44;66.12;94911.41;5056241;28;20573;-57
2022/04/21 04:29:26;;;;;;;22.03;13.40;;;4.60;95.30;;;4.47;65.98;94916.41;5054946;28;20458;-55
2022/04/21 04:31:53;;;;;;;20.27;13.67;;;4.70;95.30;;;4.50;65.76;94908.38;5054494;28;20520;-57
2022/04/21 04:34:21;;;;;;;17.77;12.40;;;4.70;95.30;;;4.52;65.62;94901.28;5052426;28;20468;-58
2022/04/21 04:36:48;;;;;;;22.03;12.80;;;4.80;95.30;;;4.52;65.49;94903.06;5053427;28;20486;-56
2022/04/21 04:39:15;;;;;;;24.50;14.20;;;4.80;95.20;;;4.49;65.37;94898.91;5054889;28;20498;-55
2022/04/21 04:44:29;;;;;;;32.40;16.30;;;4.70;95.30;;;4.46;65.70;94915.59;5051375;28;20451;-56
2022/04/21 04:46:55;;;;;;;31.07;15.77;;;4.70;95.30;;;4.47;66.12;94924.22;5051966;28;20475;-56
2022/04/21 04:49:23;;;;;;;24.50;16.97;;;4.70;95.40;;;4.46;65.80;94915.59;5054699;28;20501;-57
2022/04/21 04:51:50;;;;;;;26.00;16.63;;;4.70;95.30;;;4.47;66.00;94924.22;5052820;28;20474;-55
2022/04/21 04:54:18;;;;;;;28.40;16.40;;;4.70;95.50;;;4.49;65.97;94924.94;5053968;28;20447;-55
2022/04/21 04:56:47;;;;;;;26.40;16.70;;;4.70;95.40;;;4.53;66.24;94920.38;5056116;28;21066;-57
2022/04/21 04:59:15;;;;;;;25.20;15.90;;;4.70;95.70;;;4.59;66.62;94926.00;5055834;28;20470;-57
2022/04/21 05:01:43;;;;;;;30.80;16.93;;;4.80;95.90;;;4.67;66.42;94928.94;5047586;28;20471;-57
2022/04/21 05:04:12;;;;;;;32.73;16.77;;;4.90;96.00;;;4.79;66.20;94921.25;5050691;28;20964;-56
2022/04/21 05:06:40;;;;;;;24.80;16.60;;;4.90;96.00;;;4.86;65.79;94912.06;5053481;28;20950;-56
2022/04/21 05:09:09;;;;;;;25.90;17.27;;;5.00;95.80;;;4.92;65.76;94922.06;5053581;28;20837;-57
2022/04/21 05:11:36;;;;;;;33.97;19.30;;;5.10;95.80;;;4.98;65.81;94926.88;5055035;28;20535;-58
2022/04/21 05:14:06;;;;;;;27.90;19.97;;;5.10;95.70;;;5.08;65.75;94932.31;5054101;28;20456;-55
2022/04/21 05:16:36;;;;;;;32.70;18.70;;;5.20;95.70;;;5.18;65.82;94927.28;5049335;28;20489;-56
2022/04/21 05:19:04;;;;;;;24.80;15.57;;;5.30;95.80;;;5.28;65.88;94936.13;5051007;28;20463;-56
2022/04/21 05:21:33;;;;;;;27.43;17.20;;;5.40;95.60;;;5.41;65.84;94940.47;5053216;28;20541;-56
2022/04/21 05:24:01;;;;;;;30.03;16.63;;;5.60;95.70;;;5.49;65.35;94941.63;5058173;28;20537;-55
2022/04/21 05:26:29;;;;;;;18.93;15.00;;;5.60;95.70;;;5.57;65.42;94938.47;5060014;28;20467;-57
2022/04/21 05:28:58;;;;;;;34.57;17.57;;;5.70;95.60;;;5.64;65.31;94942.34;5062524;28;20888;-59
2022/04/21 05:31:26;;;;;;;25.30;17.20;;;5.80;95.40;;;5.74;65.08;94930.28;5060753;28;20478;-57
2022/04/21 05:33:54;;;;;;;27.23;17.87;;;5.90;95.30;;;5.84;65.08;94935.72;5055081;28;20462;-57
2022/04/21 05:36:22;;;;;;;23.90;16.00;;;6.00;95.20;;;6.00;65.13;94929.44;5057767;28;20554;-57
2022/04/21 05:38:51;;;;;;;26.37;16.00;;;6.10;95.30;;;6.19;64.89;94928.91;5057156;28;21033;-57
2022/04/21 05:41:19;;;;;;;29.93;17.53;;;6.30;95.20;;;6.37;63.86;94932.81;5058097;28;20586;-56
2022/04/21 05:43:50;;;;;;;29.80;15.17;;;6.50;94.90;;;6.53;63.65;94921.22;5061994;28;20517;-56
2022/04/21 05:46:18;;;;;;;18.57;12.50;;;6.60;94.40;;;6.63;63.46;94922.19;5062812;28;20467;-56
2022/04/21 05:48:48;;;;;;;19.47;14.27;;;6.70;94.10;;;6.73;63.38;94915.31;5062962;28;20773;-58
2022/04/21 05:51:16;;;;;;;16.83;11.23;;;6.80;93.90;;;6.81;62.38;94910.34;5053800;28;20966;-57
2022/04/21 05:53:48;;;;;;;18.57;13.03;;;6.90;93.60;;;6.91;63.06;94914.88;5055110;28;20546;-57
2022/04/21 05:56:16;;;;;;;18.63;12.40;;;7.00;93.70;;;6.96;62.81;94908.34;5061039;28;20482;-57
2022/04/21 05:58:43;;;;;;;19.20;12.60;;;7.10;93.40;;;7.00;62.28;94915.03;5058703;28;20516;-57
2022/04/21 06:01:11;;;;;;;19.13;15.33;;;7.10;93.20;;;7.05;61.64;94919.91;5058204;28;20491;-57
2022/04/21 06:03:39;;;;;;;21.93;13.87;;;7.10;92.90;;;7.07;61.83;94920.63;5056460;28;20451;-56
2022/04/21 06:06:08;;;;;;;18.03;13.53;;;7.20;92.90;;;7.11;61.81;94926.44;5056366;28;20482;-56
2022/04/21 06:08:35;;;;;;;25.50;12.50;;;7.20;93.00;;;7.10;61.89;94916.94;5054602;28;20978;-57
2022/04/21 06:11:02;;;;;;;17.43;13.03;;;7.20;92.70;;;7.08;61.79;94919.69;5056606;28;21016;-57
2022/04/21 06:13:30;;;;;;;19.80;13.23;;;7.20;92.50;;;7.08;61.16;94911.84;5060324;28;20454;-57
2022/04/21 06:15:57;;;;;;;17.60;11.73;;;7.20;92.50;;;7.07;61.07;94909.34;5061551;28;21033;-57
2022/04/21 06:18:25;;;;;;;17.30;12.97;;;7.20;92.20;;;7.04;61.47;94915.63;5058662;28;20450;-58
2022/04/21 06:20:52;;;;;;;23.37;13.23;;;7.20;92.30;;;7.05;61.47;94914.69;5053956;28;20494;-58
2022/04/21 06:23:21;;;;;;;17.47;12.87;;;7.20;92.60;;;7.11;62.06;94921.19;5054485;28;20535;-55
2022/04/21 06:25:49;;;;;;;19.00;13.97;;;7.20;92.80;;;7.17;61.80;94921.59;5061972;28;20913;-57
2022/04/21 06:28:16;;;;;;;26.40;16.33;;;7.30;92.80;;;7.21;61.15;94916.94;5060808;28;20467;-55
2022/04/21 06:30:44;;;;;;;27.43;17.20;;;7.30;92.50;;;7.24;61.90;94916.72;5058368;28;20521;-57
2022/04/21 06:33:11;;;;;;;28.73;16.57;;;7.40;92.40;;;7.27;61.51;94920.88;5058694;28;20447;-57
2022/04/21 06:35:39;;;;;;;31.37;16.50;;;7.40;92.40;;;7.31;61.73;94924.91;5057274;28;20498;-57
2022/04/21 06:38:07;;;;;;;21.80;14.23;;;7.40;92.80;;;7.38;61.08;94922.66;5052236;28;20457;-55
2022/04/21 06:40:36;;;;;;;23.67;15.60;;;7.50;92.50;;;7.43;61.65;94920.50;5059938;28;20537;-56
2022/04/21 06:48:01;;;;;;;30.07;18.90;;;7.50;92.40;;;7.47;60.73;94914.94;5061100;28;20446;-57
2022/04/21 06:48:36;;;;;;;35.80;17.07;;;7.60;92.20;;;7.56;61.15;94912.53;5060409;28;20527;-57
2022/04/21 06:51:04;;;;;;;26.80;17.00;;;7.70;92.20;;;7.63;61.48;94911.94;5055456;28;20553;-55
2022/04/21 06:53:34;;;;;;;31.27;17.63;;;7.70;92.30;;;7.72;61.19;94911.19;5061690;28;20462;-58
2022/04/21 06:56:04;;;;;;;22.77;16.27;;;7.80;92.20;;;7.84;61.60;94919.88;5055626;28;20471;-56
2022/04/21 06:58:31;;;;;;;29.53;17.40;;;7.90;92.50;;;7.95;61.17;94918.19;5059911;28;20844;-57
2022/04/21 07:00:58;;;;;;;29.57;17.60;;;8.00;92.20;;;8.00;60.26;94919.47;5059661;28;20521;-56
2022/04/21 07:03:27;;;;;;;20.87;14.97;;;8.10;92.00;;;8.10;59.73;94921.38;5057932;28;20462;-57
2022/04/21 07:05:55;;;;;;;28.27;17.23;;;8.10;91.60;;;8.17;60.64;94919.94;5052906;28;20478;-57
2022/04/21 07:08:22;;;;;;;24.40;15.80;;;8.20;91.50;;;8.23;59.49;94924.66;5059771;28;20891;-57
2022/04/21 07:10:49;;;;;;;26.33;15.37;;;8.30;91.10;;;8.29;60.19;94920.69;5051638;28;20903;-57
2022/04/21 07:13:18;;;;;;;21.60;14.00;;;8.40;91.30;;;8.32;59.49;94926.53;5059719;28;20462;-57
2022/04/21 07:15:45;;;;;;;19.47;14.30;;;8.40;91.00;;;8.37;59.21;94927.00;5057405;28;20467;-57
2022/04/21 07:18:13;;;;;;;18.60;13.00;;;8.40;90.90;;;8.47;58.87;94929.72;5058501;28;21038;-57
2022/04/21 07:20:40;;;;;;;17.53;12.87;;;8.50;90.70;;;8.58;59.55;94927.06;5053525;28;20495;-57
2022/04/21 07:23:08;;;;;;;21.37;14.53;;;8.60;91.00;;;8.72;59.05;94932.94;5056521;28;20458;-57
2022/04/21 07:25:35;;;;;;;23.47;15.33;;;8.70;90.60;;;8.84;58.81;94933.72;5050643;28;20490;-58
2022/04/21 07:28:03;;;;;;;21.53;13.37;;;8.90;90.50;;;8.99;58.25;94939.50;5057724;28;21055;-57
2022/04/21 07:30:31;;;;;;;30.43;14.07;;;9.00;90.00;;;9.09;58.31;94940.38;5057753;28;20562;-56
2022/04/21 07:32:59;;;;;;;21.67;14.53;;;9.10;90.10;;;9.18;58.26;94946.66;5058034;28;20475;-57
2022/04/21 07:35:26;;;;;;;21.23;14.80;;;9.20;90.10;;;9.30;58.12;94949.06;5061441;28;20463;-56
2022/04/21 07:37:53;;;;;;;15.93;13.60;;;9.30;90.10;;;9.48;57.91;94943.19;5053942;28;20842;-57
2022/04/21 07:40:21;;;;;;;18.23;11.70;;;9.50;90.00;;;9.62;57.42;94945.50;5054223;28;20588;-57
2022/04/21 07:42:48;;;;;;;13.43;10.53;;;9.60;88.80;;;9.79;57.22;94935.31;5054819;28;20826;-56
2022/04/21 07:45:15;;;;;;;15.30;8.90;;;9.80;88.90;;;9.90;56.28;94929.97;5056450;28;20479;-56
2022/04/21 07:47:44;;;;;;;13.23;10.10;;;9.90;87.00;;;10.03;56.14;94938.41;5057201;28;20819;-55
2022/04/21 07:50:11;;;;;;;14.27;9.87;;;10.00;85.40;;;10.28;56.02;94928.34;5058885;28;20477;-55
2022/04/21 07:55:24;;;;;;;13.80;10.00;;;10.50;84.90;;;10.69;55.08;94928.25;5049970;28;20463;-59
2022/04/21 07:57:53;;;;;;;11.50;9.40;;;10.70;83.80;;;10.80;54.76;94929.91;5060760;28;20447;-57
2022/04/21 08:00:21;;;;;;;14.00;10.77;;;10.80;82.70;;;10.92;52.76;94928.81;5058558;28;20863;-56
2022/04/21 08:02:50;;;;;;;13.90;11.03;;;10.90;78.40;;;11.01;53.82;94929.78;5057977;28;20463;-55
2022/04/21 08:05:18;;;;;;;22.13;11.13;;;11.00;80.50;;;11.15;53.83;94928.50;5059120;28;21028;-57
2022/04/21 08:07:45;;;;;;;11.47;9.03;;;11.20;80.60;;;11.29;52.11;94922.78;5050833;28;20952;-56
2022/04/21 08:10:13;;;;;;;10.43;7.70;;;11.30;77.70;;;11.35;52.47;94918.75;5050862;28;20873;-57
2022/04/21 08:12:41;;;;;;;12.50;8.20;;;11.40;77.20;;;11.42;53.06;94918.03;5056155;28;20444;-56
2022/04/21 08:15:09;;;;;;;13.67;8.77;;;11.50;78.80;;;11.53;52.14;94922.28;5053998;28;20472;-57
2022/04/21 08:17:37;;;;;;;21.37;9.60;;;11.60;77.30;;;11.66;52.46;94929.84;5056242;28;20451;-57
2022/04/21 08:20:08;;;;;;;9.13;7.63;;;11.70;77.40;;;11.81;52.19;94925.78;5054805;28;21308;-56
2022/04/21 08:22:36;;;;;;;9.07;8.17;;;11.90;77.60;;;11.95;52.08;94924.50;5054817;28;20513;-57
2022/04/21 08:33:18;;;;;;;8.57;7.70;;;12.10;74.00;;;12.17;50.71;94941.69;5054702;28;20438;-57
2022/04/21 08:35:48;;;;;;;9.07;7.43;;;12.10;73.70;;;12.26;50.90;94928.63;5059756;28;20467;-57
2022/04/21 08:38:15;;;;;;;8.57;7.20;;;12.20;74.00;;;12.32;48.95;94928.03;5050522;28;20538;-56
2022/04/21 08:40:53;;;;;;;7.93;7.13;;;12.30;71.00;;;12.28;49.71;94927.47;5051224;28;20497;-56
2022/04/21 08:43:20;;;;;;;11.40;9.50;;;12.30;71.50;;;12.23;49.04;94924.47;5050605;28;20459;-57
2022/04/21 08:45:48;;;;;;;12.03;7.77;;;12.30;69.50;;;12.23;50.70;94918.38;5054531;28;20499;-57
2022/04/21 08:48:16;;;;;;;9.40;8.30;;;12.30;73.40;;;12.20;50.51;94920.31;5055933;28;20451;-56
2022/04/21 08:50:43;;;;;;;10.17;7.90;;;12.20;72.90;;;12.18;50.80;94919.63;5056777;28;20822;-56
2022/04/21 08:53:14;;;;;;;8.70;7.80;;;12.20;73.20;;;12.17;50.65;94915.34;5057266;28;20439;-59
2022/04/21 08:55:43;;;;;;;11.40;8.70;;;12.20;73.10;;;12.23;50.73;94910.47;5049666;28;20472;-58
2022/04/21 08:58:10;;;;;;;17.37;8.60;;;12.20;73.10;;;12.20;50.23;94920.31;5050678;28;20811;-57
2022/04/21 09:00:37;;;;;;;10.23;8.53;;;12.20;71.20;;;12.16;50.70;94907.56;5057899;28;20483;-57
2022/04/21 09:03:06;;;;;;;10.07;9.03;;;12.20;72.80;;;12.14;49.04;94910.34;5055168;28;20447;-56
2022/04/21 09:05:34;;;;;;;10.53;8.53;;;12.10;70.40;;;12.10;50.68;94916.06;5054499;28;21416;-57
2022/04/21 09:08:01;;;;;;;10.97;9.10;;;12.10;72.70;;;12.07;50.86;94911.94;5051054;28;20453;-56
2022/04/21 09:10:31;;;;;;;11.57;10.40;;;12.10;73.10;;;12.07;50.91;94911.94;5047164;28;20495;-57
2022/04/21 09:13:00;;;;;;;12.50;10.30;;;12.10;73.50;;;12.11;50.67;94908.00;5054047;28;20995;-56
2022/04/21 09:15:29;;;;;;;11.93;9.83;;;12.10;73.30;;;12.16;50.78;94903.16;5048563;28;20544;-57
2022/04/21 09:17:58;;;;;;;15.60;10.07;;;12.10;73.40;;;12.23;50.77;94902.56;5055296;28;20512;-55
2022/04/21 09:20:26;;;;;;;14.60;9.83;;;12.20;72.80;;;12.26;51.34;94902.25;5057047;28;20732;-57
2022/04/21 09:22:55;;;;;;;17.97;11.50;;;12.20;73.70;;;12.30;50.78;94904.44;5054343;28;20440;-58
2022/04/21 09:25:24;;;;;;;13.30;9.70;;;12.30;73.30;;;12.28;50.85;94901.09;5050516;28;20976;-57
2022/04/21 09:27:53;;;;;;;17.60;10.27;;;12.30;73.30;;;12.24;50.76;94898.91;5058578;28;20466;-57
2022/04/21 09:30:20;;;;;;;13.80;10.53;;;12.20;72.80;;;12.23;51.26;94903.38;5046810;28;21011;-56
2022/04/21 09:32:55;;;;;;;12.43;9.80;;;12.20;74.10;;;12.28;51.12;94903.75;5058166;28;20471;-55
2022/04/21 09:35:23;;;;;;;14.07;10.03;;;12.20;73.70;;;12.30;51.17;94907.09;5054850;28;20536;-56
2022/04/21 09:37:52;;;;;;;11.57;10.13;;;12.30;73.80;;;12.32;51.18;94906.94;5054426;28;20451;-58
2022/04/21 09:40:21;;;;;;;14.97;10.80;;;12.30;73.80;;;12.35;50.99;94915.38;5051760;28;20481;-57
2022/04/21 09:42:57;;;;;;;14.97;11.60;;;12.40;73.90;;;12.37;51.09;94916.03;5049356;28;20452;-57
2022/04/21 09:48:20;;;;;;;18.43;12.87;;;12.30;73.30;;;12.38;51.28;94906.34;5056342;28;20433;-57
2022/04/21 09:50:49;;;;;;;20.30;13.77;;;12.30;73.80;;;12.41;51.41;94911.31;5057463;28;20986;-56
2022/04/21 09:53:19;;;;;;;23.67;13.57;;;12.40;74.50;;;12.45;51.02;94907.38;5054264;28;20455;-56
2022/04/21 09:55:48;;;;;;;16.37;11.87;;;12.40;74.20;;;12.46;51.42;94903.78;5051164;28;20551;-58
2022/04/21 09:58:17;;;;;;;16.70;12.87;;;12.40;74.40;;;12.47;51.29;94894.88;5046648;28;20444;-56
2022/04/21 10:00:45;;;;;;;20.10;14.20;;;12.50;74.50;;;12.54;51.11;94895.09;5048248;28;20502;-55
2022/04/21 10:03:13;;;;;;;18.33;13.53;;;12.50;74.40;;;12.59;51.18;94898.09;5051049;28;21099;-58
2022/04/21 10:05:41;;;;;;;21.83;13.77;;;12.60;74.70;;;12.58;51.11;94890.34;5053723;28;20478;-57
2022/04/21 10:08:11;;;;;;;22.57;13.53;;;12.60;74.10;;;12.60;50.86;94893.69;5056794;28;20459;-56
2022/04/21 10:10:39;;;;;;;22.00;13.50;;;12.60;73.70;;;12.59;50.78;94890.19;5054576;28;20494;-56
2022/04/21 10:13:07;;;;;;;24.07;12.50;;;12.50;73.20;;;12.60;51.08;94888.41;5055336;28;20494;-57
2022/04/21 10:15:36;;;;;;;21.40;13.27;;;12.50;73.60;;;12.63;50.81;94881.00;5052029;28;20467;-56
2022/04/21 10:18:06;;;;;;;19.33;14.20;;;12.60;73.60;;;12.66;50.90;94874.59;5053929;28;20459;-56
2022/04/21 10:20:33;;;;;;;18.40;14.90;;;12.60;73.50;;;12.68;50.97;94885.81;5053944;28;21011;-56
2022/04/21 10:23:02;;;;;;;27.13;15.93;;;12.70;73.80;;;12.71;51.33;94873.13;5058698;28;20586;-57
2022/04/21 10:25:39;;;;;;;32.13;16.23;;;12.70;73.80;;;12.76;50.94;94877.13;5057015;28;20546;-56
2022/04/21 10:28:39;;;;;;;26.90;16.30;;;12.70;73.90;;;12.75;50.82;94873.69;5053816;28;20454;-57
2022/04/21 10:31:34;;;;;;;32.73;16.87;;;12.70;73.10;;;12.70;50.46;94868.84;5055196;28;20548;-55
2022/04/21 10:34:03;;;;;;;26.80;17.83;;;12.70;72.80;;;12.69;50.47;94882.22;5053159;28;20543;-57
2022/04/21 10:36:42;;;;;;;25.93;17.20;;;12.70;73.00;;;12.69;50.46;94876.94;5059365;28;20554;-58
2022/04/21 10:39:27;;;;;;;24.07;15.03;;;12.60;72.40;;;12.66;50.42;94871.97;5058608;28;20507;-57
2022/04/21 10:42:17;;;;;;;28.07;17.17;;;12.60;72.50;;;12.67;50.70;94877.09;5051893;28;20479;-60
2022/04/21 10:44:49;;;;;;;30.20;17.67;;;12.70;72.90;;;12.67;50.83;94871.81;5050262;28;20483;-55
2022/04/21 10:47:37;;;;;;;35.23;19.80;;;12.60;72.90;;;12.71;50.94;94870.50;5051149;28;20447;-57
2022/04/21 10:50:18;;;;;;;39.40;19.00;;;12.70;73.90;;;12.76;51.58;94880.59;5057494;28;20476;-55
2022/04/21 10:58:53;;;;;;;26.53;18.40;;;12.70;73.50;;;12.72;51.04;94864.25;5056853;28;20507;-57
2022/04/21 11:01:31;;;;;;;22.83;15.53;;;12.70;73.70;;;12.83;51.17;94862.34;5051563;28;20495;-57
2022/04/21 11:04:27;;;;;;;29.23;16.93;;;12.70;74.20;;;13.00;51.04;94855.38;5051620;28;20736;-56
2022/04/21 11:07:07;;;;;;;23.90;14.37;;;12.90;74.50;;;13.09;50.83;94857.91;5059002;28;20570;-55
2022/04/21 11:09:42;;;;;;;29.30;17.63;;;13.00;73.80;;;13.19;51.00;94856.97;5058662;28;20450;-56
2022/04/21 11:12:11;;;;;;;23.37;15.97;;;13.10;73.80;;;13.22;50.77;94857.47;5058987;28;20814;-56